Time,TemperatureF,DewpointF,PressureIn,WindDirection,WindDirectionDegrees,WindSpeedMPH,WindSpeedGustMPH,Humidity,HourlyPrecipIn,Conditions,Clouds,dailyrainin,SoftwareType,DateUTC
2013-02-15 00:02:00,36.0,34.0,29.87,South,180,0.0,4.0,94,0.00,,,-99.99,,2013-02-15 05:02:00,
2013-02-15 00:12:00,36.0,34.0,29.87,South,180,0.0,4.0,94,0.00,,,-99.99,,2013-02-15 05:12:00,
2013-02-15 00:22:00,35.0,34.0,29.86,SSE,163,0.0,2.0,95,0.00,,,-99.99,,2013-02-15 05:22:00,
2013-02-15 00:32:00,35.0,34.0,29.86,SE,137,0.0,0.0,96,0.00,,,-99.99,,2013-02-15 05:32:00,
2013-02-15 00:42:00,35.0,34.0,29.86,SE,137,0.0,0.0,96,0.00,,,-99.99,,2013-02-15 05:42:00,
2013-02-15 00:52:00,35.0,34.0,29.86,SE,145,0.0,1.0,96,0.00,,,-99.99,,2013-02-15 05:52:00,
2013-02-15 01:02:00,35.0,34.0,29.86,SE,145,0.0,0.0,96,0.00,,,-99.99,,2013-02-15 06:02:00,
2013-02-15 01:11:00,35.0,34.0,29.87,SE,145,0.0,0.0,97,0.00,,,-99.99,,2013-02-15 06:11:00,
2013-02-15 01:22:00,35.0,34.0,29.87,SE,145,0.0,0.0,97,0.00,,,-99.99,,2013-02-15 06:22:00,
2013-02-15 01:32:00,34.0,33.0,29.86,SE,145,0.0,0.0,97,0.00,,,-99.99,,2013-02-15 06:32:00,
2013-02-15 01:42:00,34.0,33.0,29.86,SE,145,0.0,0.0,97,0.00,,,-99.99,,2013-02-15 06:42:00,
2013-02-15 01:52:00,34.0,34.0,29.86,SE,145,0.0,0.0,98,0.00,,,-99.99,,2013-02-15 06:52:00,
2013-02-15 02:01:00,34.0,34.0,29.86,SE,145,0.0,0.0,98,0.00,,,-99.99,,2013-02-15 07:01:00,
2013-02-15 02:11:00,34.0,34.0,29.86,SE,145,0.0,0.0,98,0.00,,,-99.99,,2013-02-15 07:11:00,
2013-02-15 02:21:00,34.0,34.0,29.86,SE,145,0.0,0.0,98,0.00,,,-99.99,,2013-02-15 07:21:00,
2013-02-15 02:31:00,34.0,34.0,29.87,SE,145,0.0,0.0,98,0.00,,,-99.99,,2013-02-15 07:31:00,
2013-02-15 02:42:00,34.0,34.0,29.87,SE,145,0.0,0.0,98,0.00,,,-99.99,,2013-02-15 07:42:00,
2013-02-15 02:52:00,34.0,34.0,29.87,SE,145,0.0,0.0,98,0.00,,,-99.99,,2013-02-15 07:52:00,
2013-02-15 03:01:00,35.0,34.0,29.87,SE,145,0.0,0.0,98,0.00,,,-99.99,,2013-02-15 08:01:00,
2013-02-15 03:11:00,35.0,34.0,29.87,SE,145,0.0,0.0,98,0.00,,,-99.99,,2013-02-15 08:11:00,
2013-02-15 03:21:00,35.0,34.0,29.88,SE,145,0.0,0.0,97,0.00,,,-99.99,,2013-02-15 08:21:00,
2013-02-15 03:32:00,36.0,35.0,29.88,SE,145,0.0,0.0,97,0.00,,,-99.99,,2013-02-15 08:32:00,
2013-02-15 03:42:00,36.0,35.0,29.88,SE,145,0.0,0.0,97,0.00,,,-99.99,,2013-02-15 08:42:00,
2013-02-15 03:53:00,36.0,35.0,29.88,South,182,2.0,11.0,96,0.00,,,-99.99,,2013-02-15 08:53:00,
2013-02-15 04:02:00,36.0,35.0,29.89,SSW,212,4.0,14.0,96,0.00,,,-99.99,,2013-02-15 09:02:00,
2013-02-15 04:12:00,36.0,35.0,29.89,SSW,212,4.0,14.0,96,0.00,,,-99.99,,2013-02-15 09:12:00,
2013-02-15 04:21:00,36.0,35.0,29.89,SSW,198,2.0,11.0,96,0.00,,,-99.99,,2013-02-15 09:21:00,
2013-02-15 04:32:00,36.0,35.0,29.89,SSW,207,5.0,11.0,95,0.00,,,-99.99,,2013-02-15 09:32:00,
2013-02-15 04:42:00,36.0,35.0,29.89,SSW,207,5.0,11.0,95,0.00,,,-99.99,,2013-02-15 09:42:00,
2013-02-15 04:52:00,36.0,35.0,29.91,SSW,198,3.0,13.0,95,0.00,,,-99.99,,2013-02-15 09:52:00,
2013-02-15 05:01:00,36.0,34.0,29.91,SSW,207,4.0,11.0,94,0.00,,,-99.99,,2013-02-15 10:01:00,
2013-02-15 05:11:00,36.0,34.0,29.91,SSW,207,4.0,11.0,94,0.00,,,-99.99,,2013-02-15 10:11:00,
2013-02-15 05:21:00,36.0,34.0,29.91,SSW,212,4.0,6.0,93,0.00,,,-99.99,,2013-02-15 10:21:00,
2013-02-15 05:31:00,36.0,34.0,29.91,SSW,200,1.0,9.0,93,0.00,,,-99.99,,2013-02-15 10:31:00,
2013-02-15 05:42:00,36.0,34.0,29.91,SSW,200,1.0,9.0,93,0.00,,,-99.99,,2013-02-15 10:42:00,
2013-02-15 05:52:00,36.0,34.0,29.91,South,186,0.0,5.0,94,0.00,,,-99.99,,2013-02-15 10:52:00,
2013-02-15 06:01:00,35.0,33.0,29.91,South,187,1.0,8.0,93,0.00,,,-99.99,,2013-02-15 11:01:00,
2013-02-15 06:11:00,35.0,33.0,29.91,South,187,1.0,8.0,93,0.00,,,-99.99,,2013-02-15 11:11:00,
2013-02-15 06:23:00,35.0,33.0,29.91,SSE,162,1.0,8.0,93,0.00,,,-99.99,,2013-02-15 11:23:00,
2013-02-15 06:32:00,34.0,32.0,29.91,South,172,0.0,7.0,92,0.00,,,-99.99,,2013-02-15 11:32:00,
2013-02-15 06:42:00,34.0,32.0,29.91,South,172,0.0,7.0,92,0.00,,,-99.99,,2013-02-15 11:42:00,
2013-02-15 06:52:00,34.0,32.0,29.92,South,179,0.0,0.0,92,0.00,,,-99.99,,2013-02-15 11:52:00,
2013-02-15 07:02:00,34.0,32.0,29.93,SSW,205,0.0,9.0,92,0.00,,,-99.99,,2013-02-15 12:02:00,
2013-02-15 07:11:00,34.0,32.0,29.93,SSW,205,0.0,9.0,92,0.00,,,-99.99,,2013-02-15 12:11:00,
2013-02-15 07:21:00,34.0,32.0,29.93,SSW,201,0.0,9.0,92,0.00,,,-99.99,,2013-02-15 12:21:00,
2013-02-15 07:32:00,34.0,32.0,29.94,SSW,196,0.0,8.0,91,0.00,,,-99.99,,2013-02-15 12:32:00,
2013-02-15 07:42:00,34.0,32.0,29.94,SSW,196,0.0,8.0,91,0.00,,,-99.99,,2013-02-15 12:42:00,
2013-02-15 07:52:00,34.0,32.0,29.96,SSE,157,0.0,6.0,91,0.00,,,-99.99,,2013-02-15 12:52:00,
2013-02-15 08:02:00,34.0,31.0,29.96,SW,229,1.0,8.0,90,0.00,,,-99.99,,2013-02-15 13:02:00,
2013-02-15 08:11:00,34.0,31.0,29.96,SW,226,0.0,6.0,90,0.00,,,-99.99,,2013-02-15 13:11:00,
2013-02-15 08:22:00,34.0,31.0,29.96,SW,226,0.0,6.0,90,0.00,,,-99.99,,2013-02-15 13:22:00,
2013-02-15 08:32:00,34.0,31.0,29.96,SW,226,0.0,6.0,90,0.00,,,-99.99,,2013-02-15 13:32:00,
2013-02-15 08:42:00,34.0,31.0,29.96,SW,226,0.0,6.0,90,0.00,,,-99.99,,2013-02-15 13:42:00,
2013-02-15 08:52:00,34.0,31.0,29.96,NE,36,0.0,0.0,90,0.00,,,-99.99,,2013-02-15 13:52:00,
2013-02-15 09:01:00,34.0,31.0,29.96,NE,36,0.0,0.0,90,0.00,,,-99.99,,2013-02-15 14:01:00,
2013-02-15 09:12:00,34.0,31.0,29.96,NE,36,0.0,0.0,90,0.00,,,-99.99,,2013-02-15 14:12:00,
2013-02-15 09:21:00,34.0,31.0,29.96,NE,36,0.0,0.0,90,0.00,,,-99.99,,2013-02-15 14:21:00,
2013-02-15 09:32:00,35.0,32.0,29.96,NE,36,0.0,0.0,89,0.00,,,-99.99,,2013-02-15 14:32:00,
2013-02-15 09:42:00,35.0,32.0,29.96,NE,36,0.0,0.0,89,0.00,,,-99.99,,2013-02-15 14:42:00,
2013-02-15 09:52:00,36.0,33.0,29.97,SSW,200,0.0,6.0,89,0.00,,,-99.99,,2013-02-15 14:52:00,
2013-02-15 10:02:00,37.0,34.0,29.96,SSW,203,0.0,7.0,87,0.00,,,-99.99,,2013-02-15 15:02:00,
2013-02-15 10:11:00,37.0,34.0,29.96,SSW,203,0.0,7.0,87,0.00,,,-99.99,,2013-02-15 15:11:00,
2013-02-15 10:21:00,37.0,33.0,29.96,SW,215,0.0,9.0,86,0.00,,,-99.99,,2013-02-15 15:21:00,
2013-02-15 10:32:00,38.0,34.0,29.96,SSW,196,3.0,9.0,85,0.00,,,-99.99,,2013-02-15 15:32:00,
2013-02-15 10:42:00,41.0,36.0,29.96,SW,223,0.0,8.0,83,0.00,,,-99.99,,2013-02-15 15:42:00,
2013-02-15 10:52:00,41.0,36.0,29.96,SW,223,0.0,8.0,83,0.00,,,-99.99,,2013-02-15 15:52:00,
2013-02-15 11:02:00,41.0,36.0,29.96,SW,215,3.0,10.0,82,0.00,,,-99.99,,2013-02-15 16:02:00,
2013-02-15 11:22:00,41.0,35.0,29.96,SSW,197,6.0,14.0,80,0.00,,,-99.99,,2013-02-15 16:22:00,
2013-02-15 11:32:00,42.0,36.0,29.96,SSW,198,3.0,12.0,79,0.00,,,-99.99,,2013-02-15 16:32:00,
2013-02-15 11:52:00,42.0,35.0,29.96,SSW,204,5.0,14.0,77,0.00,,,-99.99,,2013-02-15 16:52:00,
2013-02-15 12:01:00,42.0,35.0,29.96,SSW,195,4.0,14.0,76,0.00,,,-99.99,,2013-02-15 17:01:00,
2013-02-15 12:11:00,42.0,35.0,29.94,SSW,203,4.0,16.0,77,0.00,,,-99.99,,2013-02-15 17:11:00,
2013-02-15 12:21:00,42.0,35.0,29.94,SSW,203,4.0,16.0,77,0.00,,,-99.99,,2013-02-15 17:21:00,
2013-02-15 12:32:00,43.0,36.0,29.94,South,183,2.0,10.0,76,0.00,,,-99.99,,2013-02-15 17:32:00,
2013-02-15 12:52:00,44.0,37.0,29.93,SSW,198,1.0,11.0,75,0.00,,,-99.99,,2013-02-15 17:52:00,
2013-02-15 13:01:00,43.0,36.0,29.93,SE,145,2.0,9.0,75,0.00,,,-99.99,,2013-02-15 18:01:00,
2013-02-15 13:21:00,42.0,35.0,29.93,SW,215,6.0,16.0,75,0.00,,,-99.99,,2013-02-15 18:21:00,
2013-02-15 13:32:00,41.0,34.0,29.92,SSW,201,4.0,10.0,76,0.00,,,-99.99,,2013-02-15 18:32:00,
2013-02-15 13:52:00,41.0,34.0,29.92,SSW,209,5.0,11.0,76,0.00,,,-99.99,,2013-02-15 18:52:00,
2013-02-15 14:02:00,40.0,34.0,29.93,SSW,201,6.0,19.0,78,0.00,,,-99.99,,2013-02-15 19:02:00,
2013-02-15 14:22:00,40.0,34.0,29.93,SSW,211,2.0,9.0,79,0.00,,,-99.99,,2013-02-15 19:22:00,
2013-02-15 14:32:00,38.0,35.0,29.92,SSE,159,3.0,10.0,88,0.00,,,-99.99,,2013-02-15 19:32:00,
2013-02-15 14:52:00,38.0,35.0,29.93,SW,217,3.0,12.0,89,0.00,,,-99.99,,2013-02-15 19:52:00,
2013-02-15 15:01:00,37.0,34.0,29.93,SW,214,4.0,9.0,90,0.00,,,-99.99,,2013-02-15 20:01:00,
2013-02-15 15:21:00,37.0,34.0,29.93,SW,221,4.0,11.0,90,0.00,,,-99.99,,2013-02-15 20:21:00,
2013-02-15 15:32:00,37.0,35.0,29.92,SSW,208,3.0,10.0,91,0.00,,,-99.99,,2013-02-15 20:32:00,
2013-02-15 15:42:00,37.0,35.0,29.92,SSW,208,3.0,10.0,91,0.00,,,-99.99,,2013-02-15 20:42:00,
2013-02-15 15:52:00,37.0,35.0,29.92,SW,221,0.0,1.0,91,0.00,,,-99.99,,2013-02-15 20:52:00,
2013-02-15 16:02:00,37.0,35.0,29.92,SSW,209,4.0,10.0,91,0.00,,,-99.99,,2013-02-15 21:02:00,
2013-02-15 16:11:00,37.0,35.0,29.92,SSW,209,4.0,10.0,91,0.00,,,-99.99,,2013-02-15 21:11:00,
2013-02-15 16:21:00,37.0,34.0,29.92,SW,230,1.0,9.0,90,0.00,,,-99.99,,2013-02-15 21:21:00,
2013-02-15 16:32:00,37.0,35.0,29.92,SSW,201,3.0,10.0,91,0.00,,,-99.99,,2013-02-15 21:32:00,
2013-02-15 16:42:00,37.0,35.0,29.92,SSW,201,3.0,10.0,91,0.00,,,-99.99,,2013-02-15 21:42:00,
2013-02-15 16:52:00,37.0,35.0,29.92,SSW,208,1.0,8.0,91,0.00,,,-99.99,,2013-02-15 21:52:00,
2013-02-15 17:02:00,37.0,35.0,29.93,South,191,0.0,7.0,91,0.00,,,-99.99,,2013-02-15 22:02:00,
2013-02-15 17:11:00,36.0,34.0,29.93,SW,215,4.0,9.0,92,0.00,,,-99.99,,2013-02-15 22:11:00,
2013-02-15 17:22:00,36.0,34.0,29.93,SW,215,4.0,9.0,92,0.00,,,-99.99,,2013-02-15 22:22:00,
2013-02-15 17:32:00,36.0,34.0,29.93,SSW,212,1.0,6.0,92,0.00,,,-99.99,,2013-02-15 22:32:00,
2013-02-15 17:42:00,36.0,34.0,29.93,SSW,212,1.0,6.0,92,0.00,,,-99.99,,2013-02-15 22:42:00,
2013-02-15 17:52:00,35.0,33.0,29.92,SSE,159,2.0,8.0,92,0.00,,,-99.99,,2013-02-15 22:52:00,
2013-02-15 18:02:00,35.0,33.0,29.92,SW,219,3.0,7.0,92,0.00,,,-99.99,,2013-02-15 23:02:00,
2013-02-15 18:11:00,35.0,33.0,29.92,SW,219,3.0,7.0,92,0.00,,,-99.99,,2013-02-15 23:11:00,
2013-02-15 18:21:00,35.0,33.0,29.93,SW,223,0.0,7.0,93,0.00,,,-99.99,,2013-02-15 23:21:00,
2013-02-15 18:32:00,34.0,32.0,29.93,WSW,237,0.0,7.0,93,0.00,,,-99.99,,2013-02-15 23:32:00,
2013-02-15 18:42:00,34.0,32.0,29.93,WSW,237,0.0,7.0,93,0.00,,,-99.99,,2013-02-15 23:42:00,
2013-02-15 18:52:00,34.0,32.0,29.93,South,182,0.0,7.0,93,0.00,,,-99.99,,2013-02-15 23:52:00,
2013-02-15 19:02:00,34.0,32.0,29.93,SSW,201,0.0,8.0,92,0.00,,,-99.99,,2013-02-16 00:02:00,
2013-02-15 19:11:00,34.0,32.0,29.93,SSW,201,0.0,8.0,92,0.00,,,-99.99,,2013-02-16 00:11:00,
2013-02-15 19:21:00,34.0,32.0,29.93,SSW,201,0.0,11.0,92,0.00,,,-99.99,,2013-02-16 00:21:00,
2013-02-15 19:32:00,34.0,32.0,29.93,WSW,240,0.0,4.0,92,0.00,,,-99.99,,2013-02-16 00:32:00,
2013-02-15 19:41:00,34.0,32.0,29.93,WSW,240,0.0,4.0,92,0.00,,,-99.99,,2013-02-16 00:41:00,
2013-02-15 19:52:00,34.0,32.0,29.94,SW,216,0.0,9.0,92,0.00,,,-99.99,,2013-02-16 00:52:00,
2013-02-15 20:02:00,34.0,32.0,29.94,SW,218,1.0,7.0,92,0.00,,,-99.99,,2013-02-16 01:02:00,
2013-02-15 20:11:00,34.0,32.0,29.94,SW,218,1.0,7.0,92,0.00,,,-99.99,,2013-02-16 01:11:00,
2013-02-15 20:21:00,33.0,31.0,29.93,SSW,200,3.0,9.0,92,0.00,,,-99.99,,2013-02-16 01:21:00,
2013-02-15 20:32:00,33.0,31.0,29.94,SW,224,2.0,8.0,92,0.00,,,-99.99,,2013-02-16 01:32:00,
2013-02-15 20:42:00,33.0,31.0,29.94,SW,224,2.0,8.0,92,0.00,,,-99.99,,2013-02-16 01:42:00,
2013-02-15 20:52:00,34.0,32.0,29.93,SW,233,0.0,5.0,92,0.00,,,-99.99,,2013-02-16 01:52:00,
2013-02-15 21:01:00,34.0,32.0,29.94,SW,215,0.0,0.0,92,0.00,,,-99.99,,2013-02-16 02:01:00,
2013-02-15 21:11:00,34.0,32.0,29.94,SW,215,0.0,0.0,92,0.00,,,-99.99,,2013-02-16 02:11:00,
2013-02-15 21:21:00,34.0,32.0,29.94,SW,222,0.0,5.0,92,0.00,,,-99.99,,2013-02-16 02:21:00,
2013-02-15 21:32:00,34.0,32.0,29.93,SW,217,0.0,0.0,93,0.01,,,-99.99,,2013-02-16 02:32:00,
2013-02-15 21:42:00,34.0,32.0,29.93,SW,217,0.0,0.0,93,0.01,,,-99.99,,2013-02-16 02:42:00,
2013-02-15 21:52:00,34.0,32.0,29.93,SW,217,0.0,0.0,92,0.01,,,-99.99,,2013-02-16 02:52:00,
2013-02-15 22:02:00,34.0,32.0,29.93,SW,217,0.0,0.0,93,0.01,,,-99.99,,2013-02-16 03:02:00,
2013-02-15 22:11:00,34.0,32.0,29.93,SW,217,0.0,0.0,93,0.01,,,-99.99,,2013-02-16 03:11:00,
2013-02-15 22:21:00,34.0,32.0,29.93,SW,217,0.0,0.0,93,0.01,,,-99.99,,2013-02-16 03:21:00,
2013-02-15 22:32:00,34.0,32.0,29.93,SW,217,0.0,0.0,93,0.00,,,-99.99,,2013-02-16 03:32:00,
2013-02-15 22:42:00,34.0,32.0,29.93,SW,217,0.0,0.0,93,0.00,,,-99.99,,2013-02-16 03:42:00,
2013-02-15 22:52:00,34.0,32.0,29.93,SW,217,0.0,0.0,93,0.00,,,-99.99,,2013-02-16 03:52:00,
2013-02-15 23:01:00,33.0,31.0,29.92,SW,217,0.0,0.0,94,0.00,,,-99.99,,2013-02-16 04:01:00,
2013-02-15 23:11:00,33.0,31.0,29.92,SE,129,0.0,2.0,94,0.00,,,-99.99,,2013-02-16 04:11:00,
2013-02-15 23:21:00,33.0,31.0,29.92,SE,129,0.0,2.0,94,0.00,,,-99.99,,2013-02-16 04:21:00,
2013-02-15 23:32:00,32.0,31.0,29.93,SSW,199,2.0,12.0,95,0.00,,,-99.99,,2013-02-16 04:32:00,
2013-02-15 23:42:00,32.0,31.0,29.93,SSW,199,2.0,12.0,95,0.00,,,-99.99,,2013-02-16 04:42:00,
2013-02-15 23:52:00,32.0,31.0,29.93,SSW,210,2.0,12.0,95,0.00,,,-99.99,,2013-02-16 04:52:00,